sensor_id;sensor_type;location;lat;lon;timestamp;P1;durP1;ratioP1;P2;durP2;ratioP2
50547;SDS011;38013;48.810;8.818;2022-11-21T00:00:49;0.85;;;0.30;;
50547;SDS011;38013;48.810;8.818;2022-11-21T00:03:17;1.38;;;0.40;;
50547;SDS011;38013;48.810;8.818;2022-11-21T00:05:44;2.30;;;0.50;;
50547;SDS011;38013;48.810;8.818;2022-11-21T00:08:13;1.35;;;0.30;;
50547;SDS011;38013;48.810;8.818;2022-11-21T00:10:43;1.20;;;0.30;;
50547;SDS011;38013;48.810;8.818;2022-11-21T00:13:13;2.08;;;0.40;;
50547;SDS011;38013;48.810;8.818;2022-11-21T00:15:41;0.75;;;0.40;;
50547;SDS011;38013;48.810;8.818;2022-11-21T00:18:08;0.82;;;0.30;;
50547;SDS011;38013;48.810;8.818;2022-11-21T00:20:35;1.55;;;0.40;;
50547;SDS011;38013;48.810;8.818;2022-11-21T00:23:01;0.35;;;0.28;;
50547;SDS011;38013;48.810;8.818;2022-11-21T00:25:28;1.08;;;0.28;;
50547;SDS011;38013;48.810;8.818;2022-11-21T00:27:54;1.10;;;0.30;;
50547;SDS011;38013;48.810;8.818;2022-11-21T00:30:19;1.60;;;0.40;;
50547;SDS011;38013;48.810;8.818;2022-11-21T00:32:45;1.10;;;0.43;;
50547;SDS011;38013;48.810;8.818;2022-11-21T00:35:11;2.40;;;0.50;;
50547;SDS011;38013;48.810;8.818;2022-11-21T00:37:37;1.17;;;0.38;;
50547;SDS011;38013;48.810;8.818;2022-11-21T00:40:03;0.73;;;0.22;;
50547;SDS011;38013;48.810;8.818;2022-11-21T00:42:29;1.10;;;0.30;;
50547;SDS011;38013;48.810;8.818;2022-11-21T00:44:55;1.85;;;0.40;;
50547;SDS011;38013;48.810;8.818;2022-11-21T00:47:21;2.60;;;0.40;;
50547;SDS011;38013;48.810;8.818;2022-11-21T00:49:46;1.30;;;0.30;;
50547;SDS011;38013;48.810;8.818;2022-11-21T00:52:12;3.58;;;0.60;;
50547;SDS011;38013;48.810;8.818;2022-11-21T00:54:38;4.25;;;0.60;;
50547;SDS011;38013;48.810;8.818;2022-11-21T00:57:04;2.45;;;0.70;;
50547;SDS011;38013;48.810;8.818;2022-11-21T00:59:29;3.97;;;0.50;;
50547;SDS011;38013;48.810;8.818;2022-11-21T01:01:55;0.73;;;0.30;;
50547;SDS011;38013;48.810;8.818;2022-11-21T01:04:21;3.05;;;0.60;;
50547;SDS011;38013;48.810;8.818;2022-11-21T01:06:47;1.58;;;0.40;;
50547;SDS011;38013;48.810;8.818;2022-11-21T01:09:12;1.08;;;0.30;;
50547;SDS011;38013;48.810;8.818;2022-11-21T01:11:38;2.22;;;0.50;;
50547;SDS011;38013;48.810;8.818;2022-11-21T01:14:04;1.77;;;0.50;;
50547;SDS011;38013;48.810;8.818;2022-11-21T01:16:30;3.58;;;0.60;;
50547;SDS011;38013;48.810;8.818;2022-11-21T01:18:55;5.47;;;0.60;;
50547;SDS011;38013;48.810;8.818;2022-11-21T01:21:25;1.98;;;0.52;;
50547;SDS011;38013;48.810;8.818;2022-11-21T01:23:54;4.60;;;0.82;;
50547;SDS011;38013;48.810;8.818;2022-11-21T01:26:23;2.35;;;0.40;;
50547;SDS011;38013;48.810;8.818;2022-11-21T01:28:51;1.05;;;0.40;;
50547;SDS011;38013;48.810;8.818;2022-11-21T01:31:18;2.80;;;0.60;;
50547;SDS011;38013;48.810;8.818;2022-11-21T01:33:44;2.97;;;0.60;;
50547;SDS011;38013;48.810;8.818;2022-11-21T01:36:14;2.67;;;0.50;;
50547;SDS011;38013;48.810;8.818;2022-11-21T01:38:46;2.42;;;0.65;;
50547;SDS011;38013;48.810;8.818;2022-11-21T01:41:18;5.38;;;0.95;;
50547;SDS011;38013;48.810;8.818;2022-11-21T01:43:49;2.13;;;0.50;;
50547;SDS011;38013;48.810;8.818;2022-11-21T01:46:16;2.90;;;0.50;;
50547;SDS011;38013;48.810;8.818;2022-11-21T01:48:49;3.40;;;0.50;;
50547;SDS011;38013;48.810;8.818;2022-11-21T01:51:39;2.03;;;0.40;;
50547;SDS011;38013;48.810;8.818;2022-11-21T01:54:38;0.40;;;0.20;;
50547;SDS011;38013;48.810;8.818;2022-11-21T01:57:08;0.98;;;0.30;;
50547;SDS011;38013;48.810;8.818;2022-11-21T01:59:59;1.23;;;0.40;;
50547;SDS011;38013;48.810;8.818;2022-11-21T02:02:50;1.13;;;0.30;;
50547;SDS011;38013;48.810;8.818;2022-11-21T02:05:21;1.33;;;0.40;;
50547;SDS011;38013;48.810;8.818;2022-11-21T02:07:51;1.80;;;0.40;;
50547;SDS011;38013;48.810;8.818;2022-11-21T02:10:22;1.75;;;0.82;;
50547;SDS011;38013;48.810;8.818;2022-11-21T02:12:49;2.40;;;0.52;;
50547;SDS011;38013;48.810;8.818;2022-11-21T02:15:17;1.10;;;0.40;;
50547;SDS011;38013;48.810;8.818;2022-11-21T02:17:45;0.88;;;0.30;;
50547;SDS011;38013;48.810;8.818;2022-11-21T02:20:11;2.03;;;0.70;;
50547;SDS011;38013;48.810;8.818;2022-11-21T02:22:43;3.53;;;0.45;;
50547;SDS011;38013;48.810;8.818;2022-11-21T02:25:38;1.23;;;0.40;;
50547;SDS011;38013;48.810;8.818;2022-11-21T02:28:07;1.17;;;0.30;;
50547;SDS011;38013;48.810;8.818;2022-11-21T02:30:37;0.40;;;0.20;;
50547;SDS011;38013;48.810;8.818;2022-11-21T02:33:05;1.00;;;0.40;;
50547;SDS011;38013;48.810;8.818;2022-11-21T02:35:31;0.82;;;0.40;;
50547;SDS011;38013;48.810;8.818;2022-11-21T02:38:19;0.77;;;0.30;;
50547;SDS011;38013;48.810;8.818;2022-11-21T02:40:52;0.28;;;0.25;;
50547;SDS011;38013;48.810;8.818;2022-11-21T02:43:33;0.60;;;0.30;;
50547;SDS011;38013;48.810;8.818;2022-11-21T02:46:06;0.22;;;0.20;;
50547;SDS011;38013;48.810;8.818;2022-11-21T02:48:31;2.00;;;0.30;;
50547;SDS011;38013;48.810;8.818;2022-11-21T02:50:58;0.52;;;0.30;;
50547;SDS011;38013;48.810;8.818;2022-11-21T02:53:24;0.38;;;0.22;;
50547;SDS011;38013;48.810;8.818;2022-11-21T02:55:50;1.15;;;0.20;;
50547;SDS011;38013;48.810;8.818;2022-11-21T02:58:16;0.63;;;0.10;;
50547;SDS011;38013;48.810;8.818;2022-11-21T03:00:41;0.40;;;0.20;;
50547;SDS011;38013;48.810;8.818;2022-11-21T03:03:08;1.15;;;0.30;;
50547;SDS011;38013;48.810;8.818;2022-11-21T03:05:34;0.60;;;0.20;;
50547;SDS011;38013;48.810;8.818;2022-11-21T03:08:00;0.68;;;0.25;;
50547;SDS011;38013;48.810;8.818;2022-11-21T03:10:25;0.52;;;0.30;;
50547;SDS011;38013;48.810;8.818;2022-11-21T03:12:51;0.30;;;0.13;;
50547;SDS011;38013;48.810;8.818;2022-11-21T03:15:24;0.55;;;0.20;;
50547;SDS011;38013;48.810;8.818;2022-11-21T03:17:52;0.57;;;0.20;;
50547;SDS011;38013;48.810;8.818;2022-11-21T03:20:18;0.10;;;0.10;;
50547;SDS011;38013;48.810;8.818;2022-11-21T03:22:44;0.20;;;0.20;;
50547;SDS011;38013;48.810;8.818;2022-11-21T03:25:10;0.20;;;0.20;;
50547;SDS011;38013;48.810;8.818;2022-11-21T03:27:36;0.57;;;0.20;;
50547;SDS011;38013;48.810;8.818;2022-11-21T03:30:02;0.95;;;0.30;;
50547;SDS011;38013;48.810;8.818;2022-11-21T03:32:28;1.60;;;0.45;;
50547;SDS011;38013;48.810;8.818;2022-11-21T03:34:54;1.08;;;0.30;;
50547;SDS011;38013;48.810;8.818;2022-11-21T03:37:19;0.32;;;0.20;;
50547;SDS011;38013;48.810;8.818;2022-11-21T03:39:45;0.82;;;0.38;;
50547;SDS011;38013;48.810;8.818;2022-11-21T03:42:11;1.80;;;0.40;;
50547;SDS011;38013;48.810;8.818;2022-11-21T03:44:37;4.63;;;0.43;;
50547;SDS011;38013;48.810;8.818;2022-11-21T03:47:03;1.17;;;0.50;;
50547;SDS011;38013;48.810;8.818;2022-11-21T03:49:28;0.95;;;0.40;;
50547;SDS011;38013;48.810;8.818;2022-11-21T03:51:54;1.77;;;0.47;;
50547;SDS011;38013;48.810;8.818;2022-11-21T03:54:20;3.13;;;0.50;;
50547;SDS011;38013;48.810;8.818;2022-11-21T03:56:46;2.80;;;0.40;;
50547;SDS011;38013;48.810;8.818;2022-11-21T03:59:11;1.90;;;0.60;;
50547;SDS011;38013;48.810;8.818;2022-11-21T04:01:37;2.15;;;0.50;;
50547;SDS011;38013;48.810;8.818;2022-11-21T04:04:03;2.15;;;0.70;;
50547;SDS011;38013;48.810;8.818;2022-11-21T04:06:29;1.83;;;0.50;;
50547;SDS011;38013;48.810;8.818;2022-11-21T04:08:55;2.83;;;0.65;;
50547;SDS011;38013;48.810;8.818;2022-11-21T04:11:21;2.55;;;0.60;;
50547;SDS011;38013;48.810;8.818;2022-11-21T04:13:48;2.72;;;0.80;;
50547;SDS011;38013;48.810;8.818;2022-11-21T04:16:17;3.05;;;0.52;;
50547;SDS011;38013;48.810;8.818;2022-11-21T04:18:43;2.03;;;0.60;;
50547;SDS011;38013;48.810;8.818;2022-11-21T04:21:09;3.83;;;0.77;;
50547;SDS011;38013;48.810;8.818;2022-11-21T04:23:35;2.10;;;0.55;;
50547;SDS011;38013;48.810;8.818;2022-11-21T04:26:00;2.03;;;0.65;;
50547;SDS011;38013;48.810;8.818;2022-11-21T04:28:26;2.42;;;0.52;;
50547;SDS011;38013;48.810;8.818;2022-11-21T04:30:52;3.72;;;0.90;;
50547;SDS011;38013;48.810;8.818;2022-11-21T04:33:18;6.10;;;1.65;;
50547;SDS011;38013;48.810;8.818;2022-11-21T04:35:44;3.00;;;0.82;;
50547;SDS011;38013;48.810;8.818;2022-11-21T04:38:11;4.47;;;0.85;;
50547;SDS011;38013;48.810;8.818;2022-11-21T04:40:37;6.18;;;1.00;;
50547;SDS011;38013;48.810;8.818;2022-11-21T04:43:03;3.78;;;1.08;;
50547;SDS011;38013;48.810;8.818;2022-11-21T04:45:29;2.78;;;0.90;;
50547;SDS011;38013;48.810;8.818;2022-11-21T04:47:55;3.80;;;1.23;;
50547;SDS011;38013;48.810;8.818;2022-11-21T04:50:22;4.32;;;1.10;;
50547;SDS011;38013;48.810;8.818;2022-11-21T04:52:49;3.92;;;0.98;;
50547;SDS011;38013;48.810;8.818;2022-11-21T04:55:16;4.32;;;0.90;;
50547;SDS011;38013;48.810;8.818;2022-11-21T04:57:43;5.07;;;1.17;;
50547;SDS011;38013;48.810;8.818;2022-11-21T05:00:09;4.63;;;1.35;;
50547;SDS011;38013;48.810;8.818;2022-11-21T05:02:37;3.17;;;0.85;;
50547;SDS011;38013;48.810;8.818;2022-11-21T05:05:03;3.95;;;0.82;;
50547;SDS011;38013;48.810;8.818;2022-11-21T05:07:29;6.22;;;1.30;;
50547;SDS011;38013;48.810;8.818;2022-11-21T05:09:55;4.32;;;0.90;;
50547;SDS011;38013;48.810;8.818;2022-11-21T05:12:20;4.60;;;1.23;;
50547;SDS011;38013;48.810;8.818;2022-11-21T05:15:04;2.78;;;0.80;;
50547;SDS011;38013;48.810;8.818;2022-11-21T05:17:30;4.80;;;0.80;;
50547;SDS011;38013;48.810;8.818;2022-11-21T05:19:56;5.28;;;0.70;;
50547;SDS011;38013;48.810;8.818;2022-11-21T05:22:22;3.80;;;0.85;;
50547;SDS011;38013;48.810;8.818;2022-11-21T05:24:47;5.53;;;0.80;;
50547;SDS011;38013;48.810;8.818;2022-11-21T05:27:13;2.90;;;0.75;;
50547;SDS011;38013;48.810;8.818;2022-11-21T05:29:39;3.17;;;0.80;;
50547;SDS011;38013;48.810;8.818;2022-11-21T05:32:05;3.55;;;0.80;;
50547;SDS011;38013;48.810;8.818;2022-11-21T05:34:30;4.97;;;0.82;;
50547;SDS011;38013;48.810;8.818;2022-11-21T05:36:56;1.67;;;0.63;;
50547;SDS011;38013;48.810;8.818;2022-11-21T05:39:23;2.28;;;0.60;;
50547;SDS011;38013;48.810;8.818;2022-11-21T05:41:49;1.75;;;0.40;;
50547;SDS011;38013;48.810;8.818;2022-11-21T05:44:16;1.40;;;0.50;;
50547;SDS011;38013;48.810;8.818;2022-11-21T05:46:41;1.70;;;0.52;;
50547;SDS011;38013;48.810;8.818;2022-11-21T05:49:07;1.20;;;0.60;;
50547;SDS011;38013;48.810;8.818;2022-11-21T05:51:33;2.20;;;0.50;;
50547;SDS011;38013;48.810;8.818;2022-11-21T05:53:59;1.92;;;0.57;;
50547;SDS011;38013;48.810;8.818;2022-11-21T05:56:25;2.08;;;0.70;;
50547;SDS011;38013;48.810;8.818;2022-11-21T05:58:53;3.88;;;0.88;;
50547;SDS011;38013;48.810;8.818;2022-11-21T06:01:19;2.10;;;0.65;;
50547;SDS011;38013;48.810;8.818;2022-11-21T06:04:04;2.80;;;0.80;;
50547;SDS011;38013;48.810;8.818;2022-11-21T06:06:30;2.72;;;0.75;;
50547;SDS011;38013;48.810;8.818;2022-11-21T06:08:55;4.82;;;0.80;;
50547;SDS011;38013;48.810;8.818;2022-11-21T06:11:21;3.72;;;0.90;;
50547;SDS011;38013;48.810;8.818;2022-11-21T06:13:47;4.82;;;0.77;;
50547;SDS011;38013;48.810;8.818;2022-11-21T06:16:14;4.55;;;0.80;;
50547;SDS011;38013;48.810;8.818;2022-11-21T06:18:49;4.75;;;1.08;;
50547;SDS011;38013;48.810;8.818;2022-11-21T06:21:17;4.43;;;0.85;;
50547;SDS011;38013;48.810;8.818;2022-11-21T06:23:46;6.55;;;1.00;;
50547;SDS011;38013;48.810;8.818;2022-11-21T06:26:16;6.43;;;1.38;;
50547;SDS011;38013;48.810;8.818;2022-11-21T06:28:44;7.80;;;1.42;;
50547;SDS011;38013;48.810;8.818;2022-11-21T06:31:14;7.45;;;1.30;;
50547;SDS011;38013;48.810;8.818;2022-11-21T06:33:46;7.43;;;2.13;;
50547;SDS011;38013;48.810;8.818;2022-11-21T06:36:16;6.38;;;1.30;;
50547;SDS011;38013;48.810;8.818;2022-11-21T06:38:42;6.05;;;1.17;;
50547;SDS011;38013;48.810;8.818;2022-11-21T06:41:19;6.60;;;1.00;;
50547;SDS011;38013;48.810;8.818;2022-11-21T06:43:48;9.93;;;1.45;;
50547;SDS011;38013;48.810;8.818;2022-11-21T06:46:14;4.85;;;1.10;;
50547;SDS011;38013;48.810;8.818;2022-11-21T06:48:40;6.35;;;1.35;;
50547;SDS011;38013;48.810;8.818;2022-11-21T06:51:08;7.95;;;1.00;;
50547;SDS011;38013;48.810;8.818;2022-11-21T06:53:44;9.35;;;2.05;;
50547;SDS011;38013;48.810;8.818;2022-11-21T06:56:11;6.15;;;1.05;;
50547;SDS011;38013;48.810;8.818;2022-11-21T06:58:37;5.70;;;1.42;;
50547;SDS011;38013;48.810;8.818;2022-11-21T07:01:06;7.32;;;1.17;;
50547;SDS011;38013;48.810;8.818;2022-11-21T07:03:34;10.20;;;1.30;;
50547;SDS011;38013;48.810;8.818;2022-11-21T07:06:01;7.30;;;1.20;;
50547;SDS011;38013;48.810;8.818;2022-11-21T07:08:28;4.30;;;1.38;;
50547;SDS011;38013;48.810;8.818;2022-11-21T07:10:59;4.38;;;1.15;;
50547;SDS011;38013;48.810;8.818;2022-11-21T07:13:30;3.85;;;0.88;;
50547;SDS011;38013;48.810;8.818;2022-11-21T07:16:06;4.70;;;0.80;;
50547;SDS011;38013;48.810;8.818;2022-11-21T07:18:35;4.80;;;0.90;;
50547;SDS011;38013;48.810;8.818;2022-11-21T07:21:02;5.82;;;1.30;;
50547;SDS011;38013;48.810;8.818;2022-11-21T07:23:29;8.00;;;1.17;;
50547;SDS011;38013;48.810;8.818;2022-11-21T07:25:59;5.38;;;0.90;;
50547;SDS011;38013;48.810;8.818;2022-11-21T07:28:30;7.50;;;1.40;;
50547;SDS011;38013;48.810;8.818;2022-11-21T07:30:57;5.47;;;1.00;;
50547;SDS011;38013;48.810;8.818;2022-11-21T07:33:25;4.82;;;1.08;;
50547;SDS011;38013;48.810;8.818;2022-11-21T07:35:51;8.25;;;1.20;;
50547;SDS011;38013;48.810;8.818;2022-11-21T07:38:21;5.97;;;0.90;;
50547;SDS011;38013;48.810;8.818;2022-11-21T07:40:47;6.47;;;0.80;;
50547;SDS011;38013;48.810;8.818;2022-11-21T07:43:13;4.05;;;0.70;;
50547;SDS011;38013;48.810;8.818;2022-11-21T07:45:39;6.35;;;0.77;;
50547;SDS011;38013;48.810;8.818;2022-11-21T07:48:05;6.20;;;1.20;;
50547;SDS011;38013;48.810;8.818;2022-11-21T07:50:32;4.47;;;0.88;;
50547;SDS011;38013;48.810;8.818;2022-11-21T07:52:58;5.22;;;0.80;;
50547;SDS011;38013;48.810;8.818;2022-11-21T07:55:26;5.63;;;1.15;;
50547;SDS011;38013;48.810;8.818;2022-11-21T07:58:03;5.85;;;1.00;;
50547;SDS011;38013;48.810;8.818;2022-11-21T08:00:36;5.95;;;1.08;;
50547;SDS011;38013;48.810;8.818;2022-11-21T08:03:04;4.35;;;0.80;;
50547;SDS011;38013;48.810;8.818;2022-11-21T08:05:34;3.53;;;0.90;;
50547;SDS011;38013;48.810;8.818;2022-11-21T08:08:07;4.07;;;1.02;;
50547;SDS011;38013;48.810;8.818;2022-11-21T08:13:04;4.22;;;0.93;;
50547;SDS011;38013;48.810;8.818;2022-11-21T08:15:30;5.88;;;0.90;;
50547;SDS011;38013;48.810;8.818;2022-11-21T08:17:56;4.32;;;1.00;;
50547;SDS011;38013;48.810;8.818;2022-11-21T08:20:21;5.05;;;1.00;;
50547;SDS011;38013;48.810;8.818;2022-11-21T08:22:47;7.72;;;1.20;;
50547;SDS011;38013;48.810;8.818;2022-11-21T08:25:13;3.38;;;1.10;;
50547;SDS011;38013;48.810;8.818;2022-11-21T08:27:39;7.97;;;1.33;;
50547;SDS011;38013;48.810;8.818;2022-11-21T08:30:06;7.50;;;1.42;;
50547;SDS011;38013;48.810;8.818;2022-11-21T08:32:34;6.57;;;1.30;;
50547;SDS011;38013;48.810;8.818;2022-11-21T08:35:00;4.40;;;0.80;;
50547;SDS011;38013;48.810;8.818;2022-11-21T08:37:26;3.97;;;0.82;;
50547;SDS011;38013;48.810;8.818;2022-11-21T08:39:53;6.30;;;1.08;;
50547;SDS011;38013;48.810;8.818;2022-11-21T08:42:20;4.82;;;0.90;;
50547;SDS011;38013;48.810;8.818;2022-11-21T08:44:45;8.82;;;1.33;;
50547;SDS011;38013;48.810;8.818;2022-11-21T08:47:11;5.07;;;1.02;;
50547;SDS011;38013;48.810;8.818;2022-11-21T08:49:37;2.15;;;0.80;;
50547;SDS011;38013;48.810;8.818;2022-11-21T08:52:03;8.80;;;1.30;;
50547;SDS011;38013;48.810;8.818;2022-11-21T08:54:29;4.47;;;0.90;;
50547;SDS011;38013;48.810;8.818;2022-11-21T08:56:54;4.50;;;0.85;;
50547;SDS011;38013;48.810;8.818;2022-11-21T08:59:20;4.68;;;1.02;;
50547;SDS011;38013;48.810;8.818;2022-11-21T09:01:46;5.75;;;1.00;;
50547;SDS011;38013;48.810;8.818;2022-11-21T09:04:12;3.47;;;0.82;;
50547;SDS011;38013;48.810;8.818;2022-11-21T09:06:37;4.50;;;0.90;;
50547;SDS011;38013;48.810;8.818;2022-11-21T09:09:04;6.53;;;1.00;;
50547;SDS011;38013;48.810;8.818;2022-11-21T09:11:31;3.13;;;1.00;;
50547;SDS011;38013;48.810;8.818;2022-11-21T09:13:57;5.68;;;1.15;;
50547;SDS011;38013;48.810;8.818;2022-11-21T09:16:42;5.57;;;1.00;;
50547;SDS011;38013;48.810;8.818;2022-11-21T09:19:26;3.83;;;0.70;;
50547;SDS011;38013;48.810;8.818;2022-11-21T09:21:52;6.53;;;1.10;;
50547;SDS011;38013;48.810;8.818;2022-11-21T09:24:18;3.47;;;0.80;;
50547;SDS011;38013;48.810;8.818;2022-11-21T09:26:44;2.22;;;0.70;;
50547;SDS011;38013;48.810;8.818;2022-11-21T09:29:10;5.30;;;0.82;;
50547;SDS011;38013;48.810;8.818;2022-11-21T09:31:39;6.07;;;0.90;;
50547;SDS011;38013;48.810;8.818;2022-11-21T09:34:06;5.28;;;1.00;;
50547;SDS011;38013;48.810;8.818;2022-11-21T09:36:31;5.22;;;0.95;;
50547;SDS011;38013;48.810;8.818;2022-11-21T09:38:57;6.55;;;1.20;;
50547;SDS011;38013;48.810;8.818;2022-11-21T09:41:30;3.90;;;0.70;;
50547;SDS011;38013;48.810;8.818;2022-11-21T09:44:25;3.80;;;0.85;;
50547;SDS011;38013;48.810;8.818;2022-11-21T09:47:10;4.20;;;0.80;;
50547;SDS011;38013;48.810;8.818;2022-11-21T09:49:48;4.25;;;0.75;;
50547;SDS011;38013;48.810;8.818;2022-11-21T09:52:21;3.35;;;0.75;;
50547;SDS011;38013;48.810;8.818;2022-11-21T09:54:55;5.85;;;1.00;;
50547;SDS011;38013;48.810;8.818;2022-11-21T09:57:24;5.90;;;1.08;;
50547;SDS011;38013;48.810;8.818;2022-11-21T09:59:50;6.32;;;0.88;;
50547;SDS011;38013;48.810;8.818;2022-11-21T10:02:18;4.35;;;1.33;;
50547;SDS011;38013;48.810;8.818;2022-11-21T10:04:46;5.47;;;1.00;;
50547;SDS011;38013;48.810;8.818;2022-11-21T10:07:16;6.47;;;1.15;;
50547;SDS011;38013;48.810;8.818;2022-11-21T10:15:28;6.55;;;1.00;;
50547;SDS011;38013;48.810;8.818;2022-11-21T10:18:06;4.63;;;0.98;;
50547;SDS011;38013;48.810;8.818;2022-11-21T10:26:45;4.75;;;0.88;;
50547;SDS011;38013;48.810;8.818;2022-11-21T10:29:41;5.05;;;1.00;;
50547;SDS011;38013;48.810;8.818;2022-11-21T10:32:22;7.25;;;1.20;;
50547;SDS011;38013;48.810;8.818;2022-11-21T10:35:18;6.18;;;0.93;;
50547;SDS011;38013;48.810;8.818;2022-11-21T10:37:51;4.97;;;1.15;;
50547;SDS011;38013;48.810;8.818;2022-11-21T10:43:13;5.88;;;1.60;;
50547;SDS011;38013;48.810;8.818;2022-11-21T10:46:30;34.42;;;12.27;;
50547;SDS011;38013;48.810;8.818;2022-11-21T10:48:58;16.52;;;4.25;;
50547;SDS011;38013;48.810;8.818;2022-11-21T10:54:29;7.03;;;2.38;;
50547;SDS011;38013;48.810;8.818;2022-11-21T10:57:14;7.60;;;2.42;;
50547;SDS011;38013;48.810;8.818;2022-11-21T10:59:55;5.47;;;1.48;;
50547;SDS011;38013;48.810;8.818;2022-11-21T11:02:38;5.88;;;1.20;;
50547;SDS011;38013;48.810;8.818;2022-11-21T11:08:09;3.20;;;1.00;;
50547;SDS011;38013;48.810;8.818;2022-11-21T11:13:30;6.10;;;0.93;;
50547;SDS011;38013;48.810;8.818;2022-11-21T11:16:17;5.20;;;1.27;;
50547;SDS011;38013;48.810;8.818;2022-11-21T11:24:25;4.00;;;1.00;;
50547;SDS011;38013;48.810;8.818;2022-11-21T11:26:59;8.02;;;1.20;;
50547;SDS011;38013;48.810;8.818;2022-11-21T11:29:28;3.70;;;0.88;;
50547;SDS011;38013;48.810;8.818;2022-11-21T11:34:40;5.15;;;0.90;;
50547;SDS011;38013;48.810;8.818;2022-11-21T11:37:41;4.95;;;0.70;;
50547;SDS011;38013;48.810;8.818;2022-11-21T11:40:15;3.42;;;1.00;;
50547;SDS011;38013;48.810;8.818;2022-11-21T11:43:20;4.13;;;1.00;;
50547;SDS011;38013;48.810;8.818;2022-11-21T11:49:41;3.55;;;0.70;;
50547;SDS011;38013;48.810;8.818;2022-11-21T11:52:59;5.05;;;1.02;;
50547;SDS011;38013;48.810;8.818;2022-11-21T11:55:31;6.85;;;1.35;;
50547;SDS011;38013;48.810;8.818;2022-11-21T12:00:59;5.25;;;0.95;;
50547;SDS011;38013;48.810;8.818;2022-11-21T12:06:32;4.15;;;0.88;;
50547;SDS011;38013;48.810;8.818;2022-11-21T12:09:29;5.80;;;1.00;;
50547;SDS011;38013;48.810;8.818;2022-11-21T12:12:44;4.00;;;1.00;;
50547;SDS011;38013;48.810;8.818;2022-11-21T12:15:21;4.22;;;0.93;;
50547;SDS011;38013;48.810;8.818;2022-11-21T12:32:07;3.65;;;0.88;;
50547;SDS011;38013;48.810;8.818;2022-11-21T12:38:11;4.78;;;0.90;;
50547;SDS011;38013;48.810;8.818;2022-11-21T12:40:51;10.40;;;1.73;;
50547;SDS011;38013;48.810;8.818;2022-11-21T12:43:47;5.75;;;1.00;;
50547;SDS011;38013;48.810;8.818;2022-11-21T12:49:42;3.53;;;0.90;;
50547;SDS011;38013;48.810;8.818;2022-11-21T12:53:02;6.28;;;0.90;;
50547;SDS011;38013;48.810;8.818;2022-11-21T12:56:10;3.88;;;0.88;;
50547;SDS011;38013;48.810;8.818;2022-11-21T12:58:49;4.40;;;0.80;;
50547;SDS011;38013;48.810;8.818;2022-11-21T13:01:22;3.00;;;0.80;;
50547;SDS011;38013;48.810;8.818;2022-11-21T13:04:14;3.55;;;1.13;;
50547;SDS011;38013;48.810;8.818;2022-11-21T13:06:45;3.75;;;0.75;;
50547;SDS011;38013;48.810;8.818;2022-11-21T13:09:18;4.50;;;0.88;;
50547;SDS011;38013;48.810;8.818;2022-11-21T13:11:59;3.58;;;0.98;;
50547;SDS011;38013;48.810;8.818;2022-11-21T13:20:24;5.13;;;1.00;;
50547;SDS011;38013;48.810;8.818;2022-11-21T13:23:02;4.65;;;0.95;;
50547;SDS011;38013;48.810;8.818;2022-11-21T13:30:45;6.03;;;1.00;;
50547;SDS011;38013;48.810;8.818;2022-11-21T13:33:41;3.67;;;0.68;;
50547;SDS011;38013;48.810;8.818;2022-11-21T13:36:14;3.72;;;0.70;;
50547;SDS011;38013;48.810;8.818;2022-11-21T13:46:59;5.45;;;0.90;;
50547;SDS011;38013;48.810;8.818;2022-11-21T13:58:14;5.00;;;1.17;;
50547;SDS011;38013;48.810;8.818;2022-11-21T14:06:50;5.68;;;0.98;;
50547;SDS011;38013;48.810;8.818;2022-11-21T14:09:20;4.38;;;0.70;;
50547;SDS011;38013;48.810;8.818;2022-11-21T14:11:59;3.97;;;1.10;;
50547;SDS011;38013;48.810;8.818;2022-11-21T14:14:32;5.25;;;1.08;;
50547;SDS011;38013;48.810;8.818;2022-11-21T14:19:40;4.32;;;1.00;;
50547;SDS011;38013;48.810;8.818;2022-11-21T14:22:23;3.15;;;0.80;;
50547;SDS011;38013;48.810;8.818;2022-11-21T14:25:04;3.97;;;1.02;;
50547;SDS011;38013;48.810;8.818;2022-11-21T14:27:34;3.75;;;1.13;;
50547;SDS011;38013;48.810;8.818;2022-11-21T14:30:03;5.07;;;1.30;;
50547;SDS011;38013;48.810;8.818;2022-11-21T14:32:30;10.77;;;2.08;;
50547;SDS011;38013;48.810;8.818;2022-11-21T14:35:09;5.47;;;1.42;;
50547;SDS011;38013;48.810;8.818;2022-11-21T14:37:43;6.85;;;1.42;;
50547;SDS011;38013;48.810;8.818;2022-11-21T14:40:13;6.65;;;1.10;;
50547;SDS011;38013;48.810;8.818;2022-11-21T14:42:46;9.93;;;1.20;;
50547;SDS011;38013;48.810;8.818;2022-11-21T14:45:16;8.20;;;1.45;;
50547;SDS011;38013;48.810;8.818;2022-11-21T14:47:48;9.45;;;1.73;;
50547;SDS011;38013;48.810;8.818;2022-11-21T14:50:25;5.60;;;1.60;;
50547;SDS011;38013;48.810;8.818;2022-11-21T14:52:54;8.32;;;2.28;;
50547;SDS011;38013;48.810;8.818;2022-11-21T14:55:27;7.05;;;2.15;;
50547;SDS011;38013;48.810;8.818;2022-11-21T14:57:55;6.47;;;2.60;;
50547;SDS011;38013;48.810;8.818;2022-11-21T15:00:25;7.00;;;1.95;;
50547;SDS011;38013;48.810;8.818;2022-11-21T15:02:54;4.50;;;1.20;;
50547;SDS011;38013;48.810;8.818;2022-11-21T15:05:27;5.78;;;1.38;;
50547;SDS011;38013;48.810;8.818;2022-11-21T15:07:58;6.32;;;1.08;;
50547;SDS011;38013;48.810;8.818;2022-11-21T15:10:28;6.25;;;1.50;;
50547;SDS011;38013;48.810;8.818;2022-11-21T15:12:59;5.35;;;1.20;;
50547;SDS011;38013;48.810;8.818;2022-11-21T15:15:34;6.13;;;1.38;;
50547;SDS011;38013;48.810;8.818;2022-11-21T15:18:20;6.50;;;1.38;;
50547;SDS011;38013;48.810;8.818;2022-11-21T15:20:53;4.82;;;1.75;;
50547;SDS011;38013;48.810;8.818;2022-11-21T15:23:31;7.57;;;1.70;;
50547;SDS011;38013;48.810;8.818;2022-11-21T15:25:59;8.48;;;1.98;;
50547;SDS011;38013;48.810;8.818;2022-11-21T15:28:26;9.73;;;2.33;;
50547;SDS011;38013;48.810;8.818;2022-11-21T15:31:35;7.45;;;2.47;;
50547;SDS011;38013;48.810;8.818;2022-11-21T15:36:23;8.25;;;2.10;;
50547;SDS011;38013;48.810;8.818;2022-11-21T15:38:50;9.10;;;2.60;;
50547;SDS011;38013;48.810;8.818;2022-11-21T15:41:25;6.30;;;1.80;;
50547;SDS011;38013;48.810;8.818;2022-11-21T15:46:29;4.82;;;1.67;;
50547;SDS011;38013;48.810;8.818;2022-11-21T15:49:06;4.75;;;1.40;;
50547;SDS011;38013;48.810;8.818;2022-11-21T15:51:39;4.35;;;1.45;;
50547;SDS011;38013;48.810;8.818;2022-11-21T15:54:13;6.88;;;2.00;;
50547;SDS011;38013;48.810;8.818;2022-11-21T15:56:45;7.93;;;2.28;;
50547;SDS011;38013;48.810;8.818;2022-11-21T15:59:11;7.70;;;2.08;;
50547;SDS011;38013;48.810;8.818;2022-11-21T16:01:37;6.82;;;1.90;;
50547;SDS011;38013;48.810;8.818;2022-11-21T16:04:07;9.90;;;2.78;;
50547;SDS011;38013;48.810;8.818;2022-11-21T16:06:35;7.90;;;2.45;;
50547;SDS011;38013;48.810;8.818;2022-11-21T16:09:01;8.05;;;3.00;;
50547;SDS011;38013;48.810;8.818;2022-11-21T16:11:29;8.23;;;2.70;;
50547;SDS011;38013;48.810;8.818;2022-11-21T16:13:58;7.60;;;2.72;;
50547;SDS011;38013;48.810;8.818;2022-11-21T16:16:31;12.37;;;3.90;;
50547;SDS011;38013;48.810;8.818;2022-11-21T16:19:02;14.77;;;5.93;;
50547;SDS011;38013;48.810;8.818;2022-11-21T16:21:28;12.05;;;5.10;;
50547;SDS011;38013;48.810;8.818;2022-11-21T16:23:53;10.85;;;3.70;;
50547;SDS011;38013;48.810;8.818;2022-11-21T16:26:20;7.43;;;3.55;;
50547;SDS011;38013;48.810;8.818;2022-11-21T16:28:46;10.68;;;3.75;;
50547;SDS011;38013;48.810;8.818;2022-11-21T16:31:45;9.02;;;3.33;;
50547;SDS011;38013;48.810;8.818;2022-11-21T16:34:04;9.75;;;3.88;;
50547;SDS011;38013;48.810;8.818;2022-11-21T16:36:30;11.65;;;4.20;;
50547;SDS011;38013;48.810;8.818;2022-11-21T16:38:56;9.90;;;3.90;;
50547;SDS011;38013;48.810;8.818;2022-11-21T16:41:25;11.18;;;3.67;;
50547;SDS011;38013;48.810;8.818;2022-11-21T16:43:51;10.88;;;3.53;;
50547;SDS011;38013;48.810;8.818;2022-11-21T16:46:19;13.50;;;3.58;;
50547;SDS011;38013;48.810;8.818;2022-11-21T16:48:47;10.10;;;3.15;;
50547;SDS011;38013;48.810;8.818;2022-11-21T16:51:14;10.32;;;3.45;;
50547;SDS011;38013;48.810;8.818;2022-11-21T16:53:45;15.57;;;4.95;;
50547;SDS011;38013;48.810;8.818;2022-11-21T16:56:13;10.05;;;4.10;;